createdAt,value
2022-12-15T06:04:37.551Z,32.30
2022-12-15T06:07:04.202Z,31.02
2022-12-15T06:09:31.434Z,35.72
2022-12-15T06:11:58.058Z,29.30
2022-12-15T06:14:25.228Z,38.30
2022-12-15T06:16:51.920Z,37.40
2022-12-15T06:19:20.156Z,34.28
2022-12-15T06:21:48.285Z,35.28
2022-12-15T06:24:15.690Z,36.72
2022-12-15T06:26:42.274Z,33.67
2022-12-15T06:29:12.452Z,30.75
2022-12-15T06:31:40.342Z,34.53
2022-12-15T06:34:11.271Z,36.22
2022-12-15T06:36:38.964Z,34.40
2022-12-15T06:39:09.249Z,38.22
2022-12-15T06:41:36.464Z,36.28
2022-12-15T06:44:03.097Z,37.95
2022-12-15T06:46:31.752Z,32.30
2022-12-15T06:48:59.815Z,33.65
2022-12-15T06:51:28.988Z,36.30
2022-12-15T06:53:56.264Z,38.63
2022-12-15T06:56:34.069Z,33.63
2022-12-15T06:59:03.735Z,36.60
2022-12-15T07:01:30.825Z,37.70
2022-12-15T07:04:03.497Z,35.53
2022-12-15T07:06:37.278Z,30.05
2022-12-15T07:09:07.662Z,40.35
2022-12-15T07:11:34.469Z,35.22
2022-12-15T07:14:01.618Z,34.97
2022-12-15T07:16:28.262Z,35.97
2022-12-15T07:18:55.449Z,39.50
2022-12-15T07:21:22.411Z,40.33
2022-12-15T07:23:57.478Z,40.05
2022-12-15T07:26:25.306Z,41.85
2022-12-15T07:28:54.108Z,35.63
2022-12-15T07:31:22.508Z,38.78
2022-12-15T07:33:49.886Z,34.85
2022-12-15T07:36:16.456Z,38.40
2022-12-15T07:38:50.381Z,36.95
2022-12-15T07:41:18.439Z,34.83
2022-12-15T07:43:46.708Z,38.15
2022-12-15T07:46:13.406Z,39.97
2022-12-15T07:48:40.324Z,34.65
2022-12-15T07:51:15.222Z,36.58
2022-12-15T07:53:46.695Z,37.73
2022-12-15T07:56:14.212Z,34.75
2022-12-15T07:58:40.787Z,38.30
2022-12-15T08:01:11.201Z,43.03
2022-12-15T08:03:39.632Z,40.10
2022-12-15T08:06:10.434Z,51.40
2022-12-15T08:08:37.286Z,42.42
2022-12-15T08:11:05.886Z,38.90
2022-12-15T08:16:24.153Z,36.22
2022-12-15T08:18:50.957Z,36.35
2022-12-15T08:21:18.197Z,35.35
2022-12-15T08:23:45.043Z,33.63
2022-12-15T08:26:15.324Z,37.58
2022-12-15T08:28:42.955Z,39.00
2022-12-15T08:31:13.961Z,40.17
2022-12-15T08:33:42.555Z,42.90
2022-12-15T08:36:12.028Z,40.83
2022-12-15T08:38:40.652Z,44.63
2022-12-15T08:41:23.399Z,38.85
2022-12-15T08:43:51.758Z,34.28
2022-12-15T08:46:24.575Z,39.40
2022-12-15T08:48:53.186Z,32.80
2022-12-15T08:51:20.843Z,36.33
2022-12-15T08:53:48.925Z,33.55
2022-12-15T08:56:19.349Z,32.38
2022-12-15T09:01:22.425Z,32.75
2022-12-15T09:03:52.744Z,40.97
2022-12-15T09:06:33.561Z,36.00
2022-12-15T09:09:04.062Z,34.88
2022-12-15T09:11:31.619Z,30.30
2022-12-15T09:13:58.792Z,36.47
2022-12-15T09:16:26.323Z,37.35
2022-12-15T09:18:56.116Z,35.22
2022-12-15T09:21:26.020Z,31.05
2022-12-15T09:23:55.636Z,33.60
2022-12-15T09:26:23.726Z,29.08
2022-12-15T09:28:51.280Z,30.50
2022-12-15T09:31:25.031Z,32.88
2022-12-15T09:33:54.238Z,31.00
2022-12-15T09:36:22.328Z,30.90
2022-12-15T09:38:50.177Z,30.17
2022-12-15T09:41:27.077Z,30.90
2022-12-15T09:44:01.618Z,29.20
2022-12-15T09:46:31.199Z,30.00
2022-12-15T09:49:03.226Z,34.38
2022-12-15T09:51:36.263Z,34.53
2022-12-15T09:54:04.157Z,34.72
2022-12-15T09:56:56.545Z,31.77
2022-12-15T09:59:51.485Z,27.52
2022-12-15T10:02:49.771Z,40.47
2022-12-15T10:06:06.824Z,32.05
2022-12-15T10:08:23.723Z,37.35
2022-12-15T10:10:55.968Z,30.88
2022-12-15T10:13:34.317Z,27.85
2022-12-15T10:16:09.164Z,30.17
2022-12-15T10:18:46.885Z,33.88
2022-12-15T10:21:17.622Z,31.50
2022-12-15T10:23:44.208Z,32.60
2022-12-15T10:26:32.101Z,31.80
2022-12-15T10:29:16.998Z,29.90
2022-12-15T10:32:00.574Z,29.15
2022-12-15T10:34:29.903Z,27.08
2022-12-15T10:36:57.903Z,28.75
2022-12-15T10:39:46.160Z,28.42
2022-12-15T10:42:25.164Z,25.17
2022-12-15T10:44:55.491Z,23.75
2022-12-15T10:47:26.185Z,29.15
2022-12-15T10:49:54.882Z,27.50
2022-12-15T10:52:27.256Z,25.15
2022-12-15T10:54:55.588Z,26.92
2022-12-15T10:57:23.762Z,24.13
2022-12-15T10:59:51.326Z,27.67
2022-12-15T11:02:26.152Z,24.90
2022-12-15T11:05:06.519Z,24.88
2022-12-15T11:07:37.423Z,23.88
2022-12-15T11:10:20.376Z,32.20
2022-12-15T11:13:19.113Z,24.55
2022-12-15T11:15:50.525Z,23.20
2022-12-15T11:18:38.653Z,23.42
2022-12-15T11:21:21.867Z,28.63
2022-12-15T11:23:59.455Z,23.95
2022-12-15T11:26:45.520Z,25.70
2022-12-15T11:29:17.916Z,27.70
2022-12-15T11:31:45.838Z,26.00
2022-12-15T11:34:18.464Z,21.92
2022-12-15T11:37:18.314Z,23.38
2022-12-15T11:40:12.267Z,26.25
2022-12-15T11:42:55.388Z,25.05
2022-12-15T11:45:47.024Z,25.02
2022-12-15T11:48:19.426Z,22.33
2022-12-15T11:51:06.443Z,25.15
2022-12-15T11:54:00.964Z,22.45
2022-12-15T11:56:34.104Z,22.55
2022-12-15T11:59:18.866Z,24.73
2022-12-15T12:01:54.020Z,24.63
2022-12-15T12:04:30.508Z,21.80
2022-12-15T12:07:19.079Z,21.33
2022-12-15T12:09:58.111Z,21.38
2022-12-15T12:13:04.645Z,20.83
2022-12-15T12:15:31.783Z,20.38
2022-12-15T12:18:17.289Z,20.15
2022-12-15T12:20:50.293Z,21.17
2022-12-15T12:23:22.219Z,24.15
2022-12-15T12:26:03.297Z,23.52
2022-12-15T12:28:54.356Z,23.30
2022-12-15T12:31:56.483Z,23.90
2022-12-15T12:34:33.211Z,24.27
2022-12-15T12:37:32.459Z,21.83
2022-12-15T12:40:07.858Z,25.17
2022-12-15T12:42:40.719Z,23.83
2022-12-15T12:45:12.644Z,26.17
2022-12-15T12:47:44.489Z,18.40
2022-12-15T12:50:16.892Z,23.00
2022-12-15T12:52:51.078Z,23.50
2022-12-15T12:55:30.232Z,20.77
2022-12-15T12:57:56.876Z,20.67
2022-12-15T13:00:27.563Z,23.60
2022-12-15T13:03:23.204Z,25.52
2022-12-15T13:05:51.910Z,25.35
2022-12-15T13:08:27.999Z,22.95
2022-12-15T13:10:56.622Z,26.25
2022-12-15T13:13:29.504Z,23.65
2022-12-15T13:16:37.173Z,24.05
2022-12-15T13:19:08.431Z,23.75
2022-12-15T13:21:41.805Z,23.30
2022-12-15T13:24:34.030Z,24.10
2022-12-15T13:27:10.158Z,22.33
2022-12-15T13:29:54.943Z,30.95
2022-12-15T13:32:45.063Z,23.27
2022-12-15T13:35:12.667Z,24.83
2022-12-15T13:38:02.779Z,24.55
2022-12-15T13:40:56.774Z,21.33
2022-12-15T13:43:26.466Z,21.98
2022-12-15T13:46:00.659Z,22.27
2022-12-15T13:48:32.618Z,29.23
2022-12-15T13:51:21.728Z,20.92
2022-12-15T13:53:56.529Z,23.83
2022-12-15T13:56:51.929Z,23.83
2022-12-15T13:59:44.831Z,23.63
2022-12-15T14:02:33.055Z,21.48
2022-12-15T14:05:12.374Z,23.75
2022-12-15T14:07:40.993Z,31.30
2022-12-15T14:10:18.380Z,25.95
2022-12-15T14:12:46.677Z,22.17
2022-12-15T14:15:18.238Z,27.40
2022-12-15T14:17:52.952Z,22.60
2022-12-15T14:20:23.237Z,24.17
2022-12-15T14:22:52.296Z,25.20
2022-12-15T14:25:31.309Z,23.27
2022-12-15T14:27:57.887Z,22.85
2022-12-15T14:30:33.557Z,24.70
2022-12-15T14:33:18.560Z,24.10
2022-12-15T14:35:51.771Z,22.67
2022-12-15T14:38:24.012Z,25.10
2022-12-15T14:40:54.638Z,24.83
2022-12-15T14:43:41.406Z,25.98
2022-12-15T14:46:16.978Z,24.83
2022-12-15T14:48:51.176Z,20.10
2022-12-15T14:51:18.715Z,20.52
2022-12-15T14:53:49.823Z,18.48
2022-12-15T14:56:24.177Z,19.20
2022-12-15T14:59:05.796Z,24.10
2022-12-15T15:01:57.940Z,20.42
2022-12-15T15:04:31.161Z,21.73
2022-12-15T15:07:01.383Z,25.77
2022-12-15T15:09:31.995Z,20.23
2022-12-15T15:12:09.699Z,26.17
2022-12-15T15:14:54.758Z,24.33
2022-12-15T15:17:37.864Z,25.00
2022-12-15T15:20:38.726Z,30.60
2022-12-15T15:23:08.667Z,32.50
2022-12-15T15:25:41.129Z,34.72
2022-12-15T15:28:14.979Z,34.35
2022-12-15T15:30:51.805Z,33.00
2022-12-15T15:33:25.396Z,28.83
2022-12-15T15:35:55.623Z,32.40
2022-12-15T15:38:54.495Z,31.23
2022-12-15T15:41:32.386Z,34.85
2022-12-15T15:44:01.544Z,37.85
2022-12-15T15:46:31.293Z,38.17
2022-12-15T15:53:59.839Z,37.17
2022-12-15T15:56:28.563Z,38.33
2022-12-15T15:58:55.122Z,33.78
2022-12-15T16:01:22.030Z,38.65
2022-12-15T16:03:50.087Z,36.13
2022-12-15T16:06:19.453Z,33.00
2022-12-15T16:08:49.921Z,35.20
2022-12-15T16:11:16.775Z,34.38
2022-12-15T16:13:45.027Z,33.70
2022-12-15T16:16:24.308Z,29.20
2022-12-15T16:18:51.510Z,32.85
2022-12-15T16:21:19.816Z,37.00
2022-12-15T16:23:48.966Z,33.22
2022-12-15T16:26:21.130Z,33.20
2022-12-15T16:28:48.460Z,37.90
2022-12-15T16:31:24.531Z,57.38
2022-12-15T16:33:51.833Z,35.92
2022-12-15T16:36:18.457Z,32.92
2022-12-15T16:38:45.599Z,40.22
2022-12-15T16:41:16.817Z,31.58
2022-12-15T16:43:48.124Z,26.90
2022-12-15T16:46:15.775Z,30.27
2022-12-15T16:48:43.605Z,29.13
2022-12-15T16:51:37.441Z,31.88
2022-12-15T16:54:05.241Z,40.65
2022-12-15T16:56:32.308Z,32.70
2022-12-15T16:59:30.960Z,43.80
2022-12-15T17:01:46.549Z,35.92
2022-12-15T17:04:14.284Z,37.55
2022-12-15T17:06:40.904Z,37.15
2022-12-15T17:09:09.102Z,30.65
2022-12-15T17:11:35.812Z,25.55
2022-12-15T17:14:03.225Z,29.40
2022-12-15T17:16:29.914Z,29.27
2022-12-15T17:18:56.914Z,38.67
2022-12-15T17:21:33.897Z,44.83
2022-12-15T17:24:06.329Z,53.20
2022-12-15T17:26:36.226Z,54.33
2022-12-15T17:29:18.429Z,58.33
2022-12-15T17:31:45.083Z,52.50
2022-12-15T17:34:33.494Z,51.88
2022-12-15T17:37:06.791Z,76.20
2022-12-15T17:39:35.084Z,78.88
2022-12-15T17:42:03.086Z,73.45
2022-12-15T17:44:35.731Z,65.43
2022-12-15T17:47:05.942Z,60.85
2022-12-15T17:49:36.059Z,57.15
2022-12-15T17:52:22.007Z,62.15
2022-12-15T17:54:48.912Z,47.92
2022-12-15T17:57:15.824Z,48.25
2022-12-15T17:59:42.837Z,41.95
2022-12-15T18:02:14.210Z,46.58
2022-12-15T18:04:42.360Z,45.65
2022-12-15T18:07:16.651Z,50.30
2022-12-15T18:09:43.245Z,44.03
2022-12-15T18:12:19.849Z,38.30
2022-12-15T18:14:46.799Z,49.17
2022-12-15T18:17:14.509Z,59.92
2022-12-15T18:19:41.122Z,61.70
2022-12-15T18:22:15.437Z,47.78
2022-12-15T18:24:42.167Z,41.55
2022-12-15T18:27:28.220Z,35.00
2022-12-15T18:29:56.346Z,34.80
2022-12-15T18:32:26.149Z,40.00
2022-12-15T18:34:53.798Z,37.78
2022-12-15T18:37:23.505Z,41.25
2022-12-15T18:39:50.860Z,43.60
2022-12-15T18:42:20.423Z,53.20
2022-12-15T18:44:49.543Z,51.55
2022-12-15T18:47:21.985Z,57.63
2022-12-15T18:49:48.989Z,47.58
2022-12-15T18:52:27.587Z,54.03
2022-12-15T18:54:55.380Z,58.22
2022-12-15T18:57:41.058Z,61.42
2022-12-15T19:00:19.065Z,56.72
2022-12-15T19:02:46.585Z,56.90
2022-12-15T19:05:28.647Z,60.75
2022-12-15T19:08:11.120Z,56.13
2022-12-15T19:10:42.639Z,52.30
2022-12-15T19:13:14.474Z,58.47
2022-12-15T19:15:41.575Z,48.90
2022-12-15T19:18:32.575Z,46.55
2022-12-15T19:21:18.345Z,51.58
2022-12-15T19:23:45.621Z,39.10
2022-12-15T19:26:12.462Z,32.35
2022-12-15T19:28:39.620Z,36.40
2022-12-15T19:31:07.998Z,39.35
2022-12-15T19:33:35.599Z,29.47
2022-12-15T19:36:02.903Z,31.02
2022-12-15T19:38:32.713Z,36.95
2022-12-15T19:41:00.182Z,36.95
2022-12-15T19:43:27.649Z,34.95
2022-12-15T19:45:54.361Z,32.83
2022-12-15T19:48:23.620Z,33.45
2022-12-15T19:50:51.885Z,31.13
2022-12-15T19:53:26.354Z,33.80
2022-12-15T19:55:55.202Z,37.22
2022-12-15T19:58:31.261Z,41.53
2022-12-15T20:01:02.563Z,40.67
2022-12-15T20:03:31.324Z,43.22
2022-12-15T20:05:59.753Z,37.30
2022-12-15T20:08:33.009Z,39.45
2022-12-15T20:11:00.083Z,40.28
2022-12-15T20:13:26.916Z,38.70
2022-12-15T20:15:54.507Z,39.35
2022-12-15T20:18:21.905Z,41.75
2022-12-15T20:20:49.511Z,38.67
2022-12-15T20:23:26.592Z,43.55
2022-12-15T20:25:54.240Z,41.80
2022-12-15T20:28:30.521Z,41.17
2022-12-15T20:30:58.115Z,35.88
2022-12-15T20:33:25.454Z,33.67
2022-12-15T20:35:52.389Z,32.53
2022-12-15T20:38:39.779Z,36.50
2022-12-15T20:41:07.366Z,32.05
2022-12-15T20:43:35.893Z,37.40
2022-12-15T20:46:12.311Z,41.75
2022-12-15T20:48:39.648Z,42.60
2022-12-15T20:51:09.855Z,38.13
2022-12-15T20:53:38.342Z,33.55
2022-12-15T20:56:06.083Z,33.08
2022-12-15T20:58:43.413Z,27.33
2022-12-15T21:01:22.545Z,30.10
2022-12-15T21:03:52.075Z,24.88
2022-12-15T21:06:19.547Z,21.17
2022-12-15T21:08:47.066Z,28.20
2022-12-15T21:11:22.451Z,27.35
2022-12-15T21:13:50.188Z,26.00
2022-12-15T21:16:21.576Z,24.42
2022-12-15T21:21:39.713Z,60.55
2022-12-15T21:24:24.730Z,45.30
2022-12-15T21:26:51.976Z,58.55
2022-12-15T21:29:22.715Z,53.28
